Weather at Duplicate - Morrison Lake Seaplane Base

Public forecast

Using degrees Celsius for public forecast. Weather courtesy of forecast.io.

Closest aviation weather report (METAR) to Duplicate - Morrison Lake Seaplane Base

Report is more than 2 hours old.

Closest report is Muskoka Airport, 9.2 nm (17.0 km) NE. Retrieved 2020/10/29 14:00 UTC (2 hours ago):

CYQA 291400Z AUTO VRB03KT 9SM OVC028 05/03 A2985 RMK SLP117

Closest aviation forecast (TAF) to Duplicate - Morrison Lake Seaplane Base

Closest forecast is Muskoka Airport, 9.2 nm (17.0 km) NE. Retrieved 2020/10/29 14:39 UTC (2 hours ago):

TAF CYQA 291338Z 2914/3002 VRB03KT P6SM OVC030 TEMPO 2914/2920 5SM -SHRA BR SCT008 OVC020 BECMG 2914/2916 01012KT FM292000 01010G20KT P6SM SCT030 BKN200 RMK FCST BASED ON AUTO OBS NXT FCST BY 292000Z